createdAt,value
2018-03-04T00:01:02.827Z,51.41
2018-03-04T00:02:07.797Z,50.55
2018-03-04T00:03:12.588Z,50.48
2018-03-04T00:04:18.241Z,50.49
2018-03-04T00:05:23.178Z,50.56
2018-03-04T00:06:27.996Z,50.62
2018-03-04T00:07:32.750Z,50.38
2018-03-04T00:08:37.499Z,50.48
2018-03-04T00:09:42.604Z,50.48
2018-03-04T00:10:47.653Z,50.52
2018-03-04T00:11:52.661Z,50.43
2018-03-04T00:12:57.406Z,50.47
2018-03-04T00:14:03.157Z,50.51
2018-03-04T00:15:08.103Z,50.15
2018-03-04T00:16:13.450Z,50.27
2018-03-04T00:17:18.825Z,53.83
2018-03-04T00:18:24.182Z,51.66
2018-03-04T00:19:28.929Z,50.65
2018-03-04T00:20:33.772Z,50.39
2018-03-04T00:21:39.644Z,50.30
2018-03-04T00:22:44.661Z,50.29
2018-03-04T00:23:50.154Z,50.26
2018-03-04T00:24:55.033Z,49.91
2018-03-04T00:25:59.667Z,49.99
2018-03-04T00:27:04.414Z,50.46
2018-03-04T00:28:09.417Z,50.26
2018-03-04T00:29:14.612Z,50.12
2018-03-04T00:30:19.676Z,49.96
2018-03-04T00:31:24.676Z,50.13
2018-03-04T00:32:29.695Z,50.01
2018-03-04T00:33:34.563Z,50.03
2018-03-04T00:34:40.311Z,50.15
2018-03-04T00:35:45.469Z,50.17
2018-03-04T00:36:50.716Z,50.39
2018-03-04T00:37:55.604Z,50.39
2018-03-04T00:39:00.621Z,50.50
2018-03-04T00:40:08.025Z,50.45
2018-03-04T00:41:12.937Z,50.43
2018-03-04T00:42:18.453Z,50.59
2018-03-04T00:43:23.389Z,50.48
2018-03-04T00:44:28.321Z,50.48
2018-03-04T00:45:33.785Z,50.29
2018-03-04T00:46:39.475Z,50.21
2018-03-04T00:47:44.267Z,50.25
2018-03-04T00:48:49.777Z,50.17
2018-03-04T00:49:54.891Z,50.39
2018-03-04T00:50:59.770Z,50.23
2018-03-04T00:52:04.820Z,50.18
2018-03-04T00:53:09.623Z,50.05
2018-03-04T00:54:14.464Z,50.06
2018-03-04T00:55:19.443Z,50.29
2018-03-04T00:56:25.125Z,50.40
2018-03-04T00:57:29.953Z,50.47
2018-03-04T00:58:34.841Z,50.35
2018-03-04T00:59:40.121Z,50.25
2018-03-04T01:00:45.206Z,50.16
2018-03-04T01:01:50.734Z,50.72
2018-03-04T01:02:55.636Z,50.01
2018-03-04T01:04:00.592Z,49.86
2018-03-04T01:05:05.612Z,49.82
2018-03-04T01:06:11.628Z,49.72
2018-03-04T01:07:16.612Z,49.77
2018-03-04T01:08:21.904Z,49.80
2018-03-04T01:09:27.108Z,49.84
2018-03-04T01:10:32.353Z,49.81
2018-03-04T01:11:38.471Z,50.03
2018-03-04T01:12:43.574Z,50.06
2018-03-04T01:13:48.837Z,52.35
2018-03-04T01:14:53.770Z,51.29
2018-03-04T01:15:59.121Z,50.23
2018-03-04T01:17:04.208Z,50.29
2018-03-04T01:18:09.462Z,50.57
2018-03-04T01:19:14.561Z,50.38
2018-03-04T01:20:20.247Z,50.21
2018-03-04T01:21:25.544Z,50.28
2018-03-04T01:22:30.534Z,50.45
2018-03-04T01:23:35.531Z,51.05
2018-03-04T01:24:41.427Z,50.65
2018-03-04T01:25:46.550Z,50.71
2018-03-04T01:26:51.845Z,50.81
2018-03-04T01:27:57.202Z,51.01
2018-03-04T01:29:02.364Z,50.84
2018-03-04T01:30:08.194Z,50.98
2018-03-04T01:31:13.830Z,50.96
2018-03-04T01:32:18.870Z,50.93
2018-03-04T01:33:24.046Z,51.11
2018-03-04T01:34:29.348Z,50.96
2018-03-04T01:35:35.093Z,50.75
2018-03-04T01:36:41.242Z,50.77
2018-03-04T01:37:46.389Z,50.64
2018-03-04T01:38:52.579Z,51.01
2018-03-04T01:39:57.722Z,50.96
2018-03-04T01:41:03.205Z,50.97
2018-03-04T01:42:08.814Z,51.27
2018-03-04T01:43:14.227Z,51.37
2018-03-04T01:44:19.361Z,51.43
2018-03-04T01:45:24.904Z,51.34
2018-03-04T01:46:30.998Z,51.81
2018-03-04T01:47:37.415Z,51.36
2018-03-04T01:48:42.452Z,51.10
2018-03-04T01:49:47.766Z,51.14
2018-03-04T01:50:53.008Z,51.26
2018-03-04T01:51:58.171Z,51.30
2018-03-04T01:53:03.252Z,51.80
2018-03-04T01:54:09.539Z,51.69
2018-03-04T01:55:14.752Z,51.64
2018-03-04T01:56:20.000Z,51.61
2018-03-04T01:57:25.470Z,51.78
2018-03-04T01:58:30.742Z,51.42
2018-03-04T01:59:36.114Z,51.52
2018-03-04T02:00:42.696Z,51.61
2018-03-04T02:01:47.803Z,51.61
2018-03-04T02:02:52.925Z,51.61
2018-03-04T02:03:58.101Z,51.79
2018-03-04T02:05:03.329Z,51.67
2018-03-04T02:06:08.690Z,51.68
2018-03-04T02:07:14.361Z,51.92
2018-03-04T02:08:19.507Z,51.84
2018-03-04T02:09:24.826Z,51.69
2018-03-04T02:10:29.766Z,51.94
2018-03-04T02:11:34.860Z,51.79
2018-03-04T02:12:40.681Z,52.31
2018-03-04T02:13:46.047Z,51.86
2018-03-04T02:14:51.340Z,52.12
2018-03-04T02:15:56.721Z,52.07
2018-03-04T02:17:01.831Z,52.21
2018-03-04T02:18:08.005Z,52.34
2018-03-04T02:19:13.067Z,52.56
2018-03-04T02:20:18.725Z,52.29
2018-03-04T02:21:23.810Z,52.16
2018-03-04T02:22:28.984Z,52.22
2018-03-04T02:23:34.267Z,52.43
2018-03-04T02:24:40.293Z,52.39
2018-03-04T02:25:45.680Z,52.45
2018-03-04T02:26:51.195Z,52.32
2018-03-04T02:27:56.361Z,52.53
2018-03-04T02:29:01.623Z,52.62
2018-03-04T02:30:09.329Z,52.71
2018-03-04T02:31:14.834Z,52.84
2018-03-04T02:32:20.397Z,52.62
2018-03-04T02:33:25.582Z,52.60
2018-03-04T02:34:31.016Z,52.58
2018-03-04T02:35:36.198Z,52.69
2018-03-04T02:36:41.509Z,52.77
2018-03-04T02:37:46.668Z,52.92
2018-03-04T02:38:52.005Z,55.13
2018-03-04T02:39:57.007Z,53.93
2018-03-04T02:41:01.963Z,54.05
2018-03-04T02:42:07.098Z,53.14
2018-03-04T02:43:12.377Z,53.26
2018-03-04T02:44:17.318Z,53.24
2018-03-04T02:45:23.290Z,53.18
2018-03-04T02:46:28.554Z,52.93
2018-03-04T02:47:33.791Z,52.81
2018-03-04T02:48:39.877Z,52.70
2018-03-04T02:49:45.186Z,52.65
2018-03-04T02:50:51.117Z,52.61
2018-03-04T02:51:56.379Z,52.73
2018-03-04T02:53:01.851Z,52.92
2018-03-04T02:54:08.096Z,53.12
2018-03-04T02:55:13.315Z,53.06
2018-03-04T02:56:18.645Z,53.13
2018-03-04T02:57:24.186Z,53.11
2018-03-04T02:58:29.149Z,53.20
2018-03-04T02:59:34.253Z,53.29
2018-03-04T03:00:40.475Z,53.33
2018-03-04T03:01:46.120Z,53.53
2018-03-04T03:02:51.029Z,53.64
2018-03-04T03:03:56.580Z,53.67
2018-03-04T03:05:01.915Z,53.64
2018-03-04T03:06:08.028Z,53.72
2018-03-04T03:07:13.196Z,54.21
2018-03-04T03:08:18.383Z,53.93
2018-03-04T03:09:23.334Z,54.35
2018-03-04T03:10:28.539Z,54.15
2018-03-04T03:11:33.560Z,53.91
2018-03-04T03:12:38.893Z,53.85
2018-03-04T03:13:43.802Z,54.91
2018-03-04T03:14:49.185Z,54.04
2018-03-04T03:15:54.980Z,54.06
2018-03-04T03:17:00.774Z,53.90
2018-03-04T03:18:06.706Z,54.06
2018-03-04T03:19:11.999Z,54.00
2018-03-04T03:20:17.256Z,54.11
2018-03-04T03:21:22.455Z,54.16
2018-03-04T03:22:27.905Z,54.09
2018-03-04T03:23:32.718Z,53.95
2018-03-04T03:24:40.429Z,54.00
2018-03-04T03:25:45.732Z,53.89
2018-03-04T03:26:50.537Z,54.02
2018-03-04T03:27:55.503Z,53.75
2018-03-04T03:29:01.390Z,53.87
2018-03-04T03:30:09.018Z,53.71
2018-03-04T03:31:14.129Z,53.59
2018-03-04T03:32:19.207Z,53.37
2018-03-04T03:33:23.958Z,53.46
2018-03-04T03:34:29.228Z,56.35
2018-03-04T03:35:34.273Z,54.61
2018-03-04T03:36:39.432Z,54.09
2018-03-04T03:37:44.500Z,53.74
2018-03-04T03:38:49.686Z,53.69
2018-03-04T03:39:54.182Z,53.46
2018-03-04T03:40:59.046Z,53.40
2018-03-04T03:42:04.059Z,53.57
2018-03-04T03:43:09.471Z,53.47
2018-03-04T03:44:14.193Z,53.61
2018-03-04T03:45:19.233Z,54.61
2018-03-04T03:46:24.213Z,53.71
2018-03-04T03:47:29.070Z,53.59
2018-03-04T03:48:33.875Z,53.65
2018-03-04T03:49:39.378Z,53.61
2018-03-04T03:50:44.192Z,53.77
2018-03-04T03:51:48.962Z,54.08
2018-03-04T03:52:54.232Z,53.77
2018-03-04T03:53:59.228Z,53.69
2018-03-04T03:55:03.937Z,53.64
2018-03-04T03:56:09.693Z,53.77
2018-03-04T03:57:14.523Z,53.81
2018-03-04T03:58:19.263Z,53.94
2018-03-04T03:59:24.359Z,54.16
2018-03-04T04:00:29.578Z,53.77
2018-03-04T04:01:34.374Z,54.07
2018-03-04T04:02:39.010Z,53.72
2018-03-04T04:03:43.949Z,53.55
2018-03-04T04:04:48.958Z,54.83
2018-03-04T04:05:53.778Z,55.06
2018-03-04T04:06:58.963Z,54.54
2018-03-04T04:08:03.482Z,55.71
2018-03-04T04:09:09.190Z,54.24
2018-03-04T04:10:14.239Z,54.18
2018-03-04T04:11:19.252Z,54.23
2018-03-04T04:12:24.060Z,54.90
2018-03-04T04:13:28.821Z,54.58
2018-03-04T04:14:33.627Z,54.48
2018-03-04T04:15:38.410Z,54.64
2018-03-04T04:16:43.892Z,54.63
2018-03-04T04:17:48.287Z,54.64
2018-03-04T04:18:53.111Z,54.60
2018-03-04T04:19:57.508Z,54.59
2018-03-04T04:21:02.393Z,54.46
2018-03-04T04:22:06.867Z,54.67
2018-03-04T04:23:11.364Z,55.07
2018-03-04T04:24:16.146Z,54.99
2018-03-04T04:25:21.004Z,55.28
2018-03-04T04:26:25.858Z,54.85
2018-03-04T04:27:30.499Z,54.91
2018-03-04T04:28:35.092Z,55.00
2018-03-04T04:29:40.384Z,55.10
2018-03-04T04:30:45.040Z,55.12
2018-03-04T04:31:49.629Z,55.29
2018-03-04T04:32:54.197Z,54.92
2018-03-04T04:33:58.657Z,55.08
2018-03-04T04:35:03.041Z,55.17
2018-03-04T04:36:07.613Z,55.29
2018-03-04T04:37:12.429Z,54.97
2018-03-04T04:38:16.823Z,54.82
2018-03-04T04:39:21.550Z,55.14
2018-03-04T04:40:26.165Z,54.63
2018-03-04T04:41:30.540Z,54.95
2018-03-04T04:42:34.903Z,54.83
2018-03-04T04:43:39.899Z,54.54
2018-03-04T04:44:44.336Z,54.33
2018-03-04T04:45:49.061Z,54.34
2018-03-04T04:46:53.448Z,54.45
2018-03-04T04:47:58.241Z,54.43
2018-03-04T04:49:02.902Z,54.28
2018-03-04T04:50:07.877Z,54.52
2018-03-04T04:51:12.352Z,54.68
2018-03-04T04:52:16.936Z,54.34
2018-03-04T04:53:21.854Z,54.58
2018-03-04T04:54:26.501Z,54.46
2018-03-04T04:55:32.414Z,54.36
2018-03-04T04:56:38.208Z,54.29
2018-03-04T04:57:43.530Z,55.63
2018-03-04T04:58:48.176Z,54.63
2018-03-04T04:59:53.215Z,54.39
2018-03-04T05:00:58.362Z,54.35
2018-03-04T05:02:02.903Z,54.49
2018-03-04T05:03:08.878Z,54.55
2018-03-04T05:04:13.371Z,54.61
2018-03-04T05:05:17.814Z,54.63
2018-03-04T05:06:22.210Z,54.77
2018-03-04T05:07:27.233Z,54.48
2018-03-04T05:08:32.264Z,54.83
2018-03-04T05:09:36.982Z,54.63
2018-03-04T05:10:42.842Z,54.83
2018-03-04T05:11:47.416Z,54.79
2018-03-04T05:12:51.931Z,54.56
2018-03-04T05:13:56.335Z,54.69
2018-03-04T05:15:01.254Z,54.63
2018-03-04T05:16:07.293Z,54.89
2018-03-04T05:17:12.171Z,54.77
2018-03-04T05:18:16.972Z,54.99
2018-03-04T05:19:21.335Z,54.98
2018-03-04T05:20:25.876Z,54.88
2018-03-04T05:21:30.704Z,54.75
2018-03-04T05:22:35.042Z,54.64
2018-03-04T05:23:39.442Z,54.55
2018-03-04T05:24:44.970Z,54.62
2018-03-04T05:25:49.470Z,55.74
2018-03-04T05:26:54.017Z,55.03
2018-03-04T05:27:58.502Z,54.84
2018-03-04T05:29:03.094Z,54.87
2018-03-04T05:30:07.931Z,55.38
2018-03-04T05:31:12.640Z,54.69
2018-03-04T05:32:17.166Z,54.57
2018-03-04T05:33:21.567Z,54.61
2018-03-04T05:34:26.498Z,54.66
2018-03-04T05:35:30.818Z,54.90
2018-03-04T05:36:35.391Z,54.77
2018-03-04T05:37:40.224Z,54.81
2018-03-04T05:38:45.879Z,57.98
2018-03-04T05:39:50.874Z,55.57
2018-03-04T05:40:55.769Z,54.81
2018-03-04T05:42:01.081Z,54.54
2018-03-04T05:43:06.255Z,54.96
2018-03-04T05:44:11.678Z,54.96
2018-03-04T05:45:17.137Z,54.91
2018-03-04T05:46:22.030Z,54.90
2018-03-04T05:47:26.896Z,58.91
2018-03-04T05:48:31.529Z,55.69
2018-03-04T05:49:36.206Z,54.91
2018-03-04T05:50:41.586Z,56.28
2018-03-04T05:51:46.100Z,54.89
2018-03-04T05:52:51.004Z,54.86
2018-03-04T05:53:55.800Z,54.68
2018-03-04T05:55:01.060Z,54.72
2018-03-04T05:56:06.953Z,54.87
2018-03-04T05:57:11.675Z,54.96
2018-03-04T05:58:16.645Z,55.22
2018-03-04T05:59:21.629Z,54.89
2018-03-04T06:00:28.123Z,54.60
2018-03-04T06:01:32.907Z,54.72
2018-03-04T06:02:38.173Z,54.92
2018-03-04T06:03:44.206Z,54.87
2018-03-04T06:04:49.895Z,54.84
2018-03-04T06:05:56.265Z,55.58
2018-03-04T06:07:00.855Z,54.79
2018-03-04T06:08:05.504Z,54.73
2018-03-04T06:09:10.314Z,54.67
2018-03-04T06:10:15.313Z,55.04
2018-03-04T06:11:20.306Z,56.13
2018-03-04T06:12:26.874Z,54.97
2018-03-04T06:13:31.863Z,54.83
2018-03-04T06:14:36.893Z,55.71
2018-03-04T06:15:43.179Z,54.81
2018-03-04T06:16:48.237Z,54.65
2018-03-04T06:17:53.129Z,54.73
2018-03-04T06:18:58.375Z,55.42
2018-03-04T06:20:03.646Z,54.81
2018-03-04T06:21:09.336Z,54.61
2018-03-04T06:22:14.597Z,54.62
2018-03-04T06:23:19.286Z,54.52
2018-03-04T06:24:25.156Z,54.80
2018-03-04T06:25:30.081Z,54.66
2018-03-04T06:26:35.052Z,54.83
2018-03-04T06:27:40.174Z,54.64
2018-03-04T06:28:46.092Z,54.82
2018-03-04T06:29:51.303Z,55.04
2018-03-04T06:30:57.432Z,54.79
2018-03-04T06:32:03.071Z,54.98
2018-03-04T06:33:09.043Z,55.12
2018-03-04T06:34:15.463Z,55.26
2018-03-04T06:35:20.679Z,55.28
2018-03-04T06:36:26.029Z,55.45
2018-03-04T06:37:31.830Z,55.41
2018-03-04T06:38:37.139Z,55.28
2018-03-04T06:39:42.572Z,55.18
2018-03-04T06:40:47.529Z,54.99
2018-03-04T06:41:52.795Z,54.68
2018-03-04T06:42:58.263Z,54.74
2018-03-04T06:44:02.958Z,54.89
2018-03-04T06:45:08.420Z,54.90
2018-03-04T06:46:14.243Z,54.93
2018-03-04T06:47:19.313Z,55.03
2018-03-04T06:48:24.591Z,55.04
2018-03-04T06:49:30.006Z,55.08
2018-03-04T06:50:35.813Z,55.18
2018-03-04T06:51:42.116Z,55.17
2018-03-04T06:52:46.941Z,55.12
2018-03-04T06:53:52.214Z,55.31
2018-03-04T06:54:57.322Z,55.21
2018-03-04T06:56:02.734Z,55.45
2018-03-04T06:57:08.723Z,55.27
2018-03-04T06:58:13.839Z,55.47
2018-03-04T06:59:18.885Z,55.51
2018-03-04T07:00:24.203Z,55.52
2018-03-04T07:01:29.707Z,55.44
2018-03-04T07:02:35.206Z,55.36
2018-03-04T07:03:41.937Z,55.25
2018-03-04T07:04:46.950Z,55.42
2018-03-04T07:05:52.636Z,55.64
2018-03-04T07:06:57.956Z,55.59
2018-03-04T07:08:03.076Z,55.48
2018-03-04T07:09:08.303Z,55.37
2018-03-04T07:10:14.700Z,55.26
2018-03-04T07:11:20.020Z,55.07
2018-03-04T07:12:25.282Z,54.95
2018-03-04T07:13:30.381Z,54.89
2018-03-04T07:14:35.395Z,54.48
2018-03-04T07:15:41.282Z,54.50
2018-03-04T07:16:46.678Z,54.36
2018-03-04T07:17:51.734Z,54.61
2018-03-04T07:18:57.087Z,55.08
2018-03-04T07:20:02.156Z,55.00
2018-03-04T07:21:08.145Z,54.89
2018-03-04T07:22:13.292Z,54.96
2018-03-04T07:23:18.724Z,55.08
2018-03-04T07:24:23.881Z,55.11
2018-03-04T07:25:29.375Z,55.20
2018-03-04T07:26:34.579Z,55.29
2018-03-04T07:27:40.512Z,55.34
2018-03-04T07:28:45.492Z,55.42
2018-03-04T07:29:50.732Z,55.41
2018-03-04T07:30:56.109Z,55.27
2018-03-04T07:32:00.994Z,55.18
2018-03-04T07:33:06.028Z,55.12
2018-03-04T07:34:11.146Z,55.00
2018-03-04T07:35:19.480Z,54.62
2018-03-04T07:36:38.219Z,54.65
2018-03-04T07:37:43.786Z,54.62
2018-03-04T07:38:49.512Z,54.98
2018-03-04T07:39:54.479Z,55.37
2018-03-04T07:40:59.407Z,55.36
2018-03-04T07:42:05.772Z,55.50
2018-03-04T07:43:12.415Z,55.54
2018-03-04T07:44:17.597Z,55.59
2018-03-04T07:45:23.326Z,55.64
2018-03-04T07:46:28.458Z,55.91
2018-03-04T07:47:33.521Z,55.91
2018-03-04T07:48:38.477Z,55.98
2018-03-04T07:49:43.535Z,56.15
2018-03-04T07:50:48.595Z,58.44
2018-03-04T07:51:53.991Z,56.34
2018-03-04T07:52:59.172Z,56.02
2018-03-04T07:54:05.075Z,56.06
2018-03-04T07:55:10.059Z,56.21
2018-03-04T07:56:16.028Z,56.33
2018-03-04T07:57:20.980Z,56.04
2018-03-04T07:58:25.737Z,56.02
2018-03-04T07:59:30.965Z,56.24
2018-03-04T08:00:37.007Z,56.27
2018-03-04T08:01:42.169Z,56.06
2018-03-04T08:02:47.749Z,56.19
2018-03-04T08:03:52.679Z,55.99
2018-03-04T08:04:58.368Z,55.94
2018-03-04T08:06:03.520Z,55.96
2018-03-04T08:07:08.915Z,57.25
2018-03-04T08:08:14.627Z,56.21
2018-03-04T08:09:19.477Z,56.16
2018-03-04T08:10:24.606Z,56.20
2018-03-04T08:11:29.555Z,56.06
2018-03-04T08:12:34.476Z,55.81
2018-03-04T08:13:39.745Z,55.73
2018-03-04T08:14:44.619Z,55.56
2018-03-04T08:15:49.702Z,55.57
2018-03-04T08:16:54.630Z,55.94
2018-03-04T08:17:59.770Z,55.51
2018-03-04T08:19:05.229Z,55.35
2018-03-04T08:20:10.579Z,55.16
2018-03-04T08:21:16.312Z,55.28
2018-03-04T08:22:21.133Z,55.30
2018-03-04T08:23:25.908Z,55.29
2018-03-04T08:24:39.425Z,54.83
2018-03-04T08:25:44.491Z,56.10
2018-03-04T08:28:57.881Z,54.85
2018-03-04T08:30:04.168Z,54.80
2018-03-04T08:31:09.898Z,55.18
2018-03-04T08:32:15.170Z,54.82
2018-03-04T08:33:20.695Z,54.57
2018-03-04T08:34:25.615Z,54.68
2018-03-04T08:35:30.519Z,54.75
2018-03-04T08:36:35.723Z,54.86
2018-03-04T08:37:40.657Z,54.93
2018-03-04T08:38:45.832Z,54.84
2018-03-04T08:39:50.720Z,55.28
2018-03-04T08:40:55.550Z,55.15
2018-03-04T08:42:00.568Z,55.73
2018-03-04T08:43:05.494Z,55.62
2018-03-04T08:44:10.658Z,55.22
2018-03-04T08:45:18.287Z,54.98
2018-03-04T08:46:23.038Z,55.21
2018-03-04T08:47:27.761Z,54.62
2018-03-04T08:48:32.715Z,54.38
2018-03-04T08:49:37.530Z,54.53
2018-03-04T08:50:42.397Z,54.63
2018-03-04T08:51:47.631Z,54.66
2018-03-04T08:52:52.381Z,54.87
2018-03-04T08:53:57.243Z,54.51
2018-03-04T08:55:02.320Z,54.29
2018-03-04T08:56:07.259Z,54.28
2018-03-04T08:57:12.219Z,54.71
2018-03-04T08:58:17.445Z,56.43
2018-03-04T08:59:23.198Z,55.33
2018-03-04T09:00:28.139Z,54.87
2018-03-04T09:01:33.235Z,54.76
2018-03-04T09:02:38.024Z,54.75
2018-03-04T09:03:42.824Z,54.75
2018-03-04T09:04:48.836Z,54.48
2018-03-04T09:05:53.662Z,54.10
2018-03-04T09:06:58.355Z,54.34
2018-03-04T09:08:03.533Z,54.46
2018-03-04T09:09:08.348Z,54.39
2018-03-04T09:10:13.450Z,55.76
2018-03-04T09:11:18.426Z,53.51
2018-03-04T09:12:23.430Z,53.60
2018-03-04T09:13:28.207Z,53.11
2018-03-04T09:14:32.924Z,53.12
2018-03-04T09:15:38.174Z,53.40
2018-03-04T09:16:43.295Z,53.74
2018-03-04T09:17:48.052Z,53.67
2018-03-04T09:18:53.685Z,53.99
2018-03-04T09:19:59.268Z,55.20
2018-03-04T09:21:04.519Z,53.68
2018-03-04T09:22:09.470Z,54.50
2018-03-04T09:23:15.802Z,53.49
2018-03-04T09:24:21.508Z,53.30
2018-03-04T09:25:26.266Z,53.44
2018-03-04T09:26:30.981Z,53.39
2018-03-04T09:27:36.148Z,53.87
2018-03-04T09:28:40.838Z,53.47
2018-03-04T09:29:45.984Z,52.98
2018-03-04T09:30:51.470Z,52.83
2018-03-04T09:31:56.130Z,53.06
2018-03-04T09:33:01.180Z,53.01
2018-03-04T09:34:05.977Z,56.08
2018-03-04T09:35:11.196Z,52.62
2018-03-04T09:36:16.054Z,52.69
2018-03-04T09:37:20.814Z,56.44
2018-03-04T09:38:25.756Z,53.09
2018-03-04T09:39:30.541Z,52.92
2018-03-04T09:40:35.663Z,52.90
2018-03-04T09:41:40.447Z,52.97
2018-03-04T09:42:45.291Z,52.93
2018-03-04T09:43:50.205Z,52.95
2018-03-04T09:44:55.105Z,52.72
2018-03-04T09:46:00.166Z,52.99
2018-03-04T09:47:05.323Z,53.18
2018-03-04T09:48:10.223Z,53.03
2018-03-04T09:49:15.360Z,53.18
2018-03-04T09:50:21.207Z,53.41
2018-03-04T09:51:26.025Z,53.45
2018-03-04T09:52:30.923Z,53.58
2018-03-04T09:53:35.842Z,53.79
2018-03-04T09:54:40.719Z,54.36
2018-03-04T09:55:45.446Z,54.36
2018-03-04T09:56:50.472Z,54.45
2018-03-04T09:57:55.312Z,54.71
2018-03-04T09:59:00.885Z,54.98
2018-03-04T10:00:07.680Z,54.78
2018-03-04T10:01:12.477Z,57.81
2018-03-04T10:02:17.274Z,55.10
2018-03-04T10:03:22.020Z,55.10
2018-03-04T10:04:26.954Z,55.06
2018-03-04T10:05:31.639Z,54.99
2018-03-04T10:06:36.402Z,54.79
2018-03-04T10:07:41.042Z,54.55
2018-03-04T10:08:45.870Z,54.56
2018-03-04T10:09:51.198Z,54.60
2018-03-04T10:10:55.878Z,54.01
2018-03-04T10:12:01.093Z,54.00
2018-03-04T10:13:06.099Z,53.69
2018-03-04T10:14:10.839Z,54.13
2018-03-04T10:15:17.491Z,54.18
2018-03-04T10:16:22.246Z,54.01
2018-03-04T10:17:27.691Z,54.47
2018-03-04T10:18:32.779Z,54.82
2018-03-04T10:19:37.636Z,55.01
2018-03-04T10:20:42.522Z,54.92
2018-03-04T10:21:47.377Z,57.27
2018-03-04T10:22:52.263Z,54.80
2018-03-04T10:23:57.051Z,54.82
2018-03-04T10:25:02.355Z,54.12
2018-03-04T10:26:07.287Z,54.39
2018-03-04T10:27:12.037Z,54.80
2018-03-04T10:28:16.875Z,54.96
2018-03-04T10:29:22.307Z,54.98
2018-03-04T10:30:27.418Z,54.83
2018-03-04T10:31:32.220Z,54.88
2018-03-04T10:32:36.988Z,55.38
2018-03-04T10:33:41.816Z,55.41
2018-03-04T10:34:46.644Z,55.50
2018-03-04T10:35:52.477Z,55.83
2018-03-04T10:36:57.260Z,58.10
2018-03-04T10:38:02.424Z,55.49
2018-03-04T10:39:07.283Z,54.09
2018-03-04T10:40:12.277Z,54.08
2018-03-04T10:41:17.010Z,53.71
2018-03-04T10:42:21.781Z,53.57
2018-03-04T10:43:27.349Z,54.19
2018-03-04T10:44:32.349Z,54.47
2018-03-04T10:45:37.368Z,54.34
2018-03-04T10:46:42.406Z,54.82
2018-03-04T10:47:47.654Z,55.55
2018-03-04T10:48:52.991Z,55.43
2018-03-04T10:49:58.691Z,55.47
2018-03-04T10:51:03.681Z,55.67
2018-03-04T10:52:08.422Z,55.12
2018-03-04T10:53:13.118Z,54.78
2018-03-04T10:54:17.732Z,54.89
2018-03-04T10:55:22.466Z,55.07
2018-03-04T10:56:27.308Z,55.27
2018-03-04T10:57:32.399Z,55.50
2018-03-04T10:58:37.149Z,55.28
2018-03-04T10:59:42.276Z,54.77
2018-03-04T11:00:47.849Z,54.10
2018-03-04T11:01:54.556Z,53.33
2018-03-04T11:03:00.137Z,53.61
2018-03-04T11:04:05.051Z,53.45
2018-03-04T11:05:10.927Z,52.61
2018-03-04T11:06:15.601Z,52.65
2018-03-04T11:07:20.469Z,52.36
2018-03-04T11:08:26.127Z,52.96
2018-03-04T11:09:31.443Z,53.09
2018-03-04T11:10:36.468Z,53.29
2018-03-04T11:11:41.252Z,53.44
2018-03-04T11:12:45.983Z,52.60
2018-03-04T11:13:50.938Z,52.75
2018-03-04T11:14:56.360Z,53.32
2018-03-04T11:16:01.921Z,52.89
2018-03-04T11:17:06.725Z,52.96
2018-03-04T11:18:11.566Z,53.06
2018-03-04T11:19:16.623Z,53.60
2018-03-04T11:20:21.407Z,54.11
2018-03-04T11:21:26.252Z,53.84
2018-03-04T11:22:31.877Z,53.69
2018-03-04T11:23:36.731Z,53.25
2018-03-04T11:24:41.709Z,53.58
2018-03-04T11:25:46.613Z,53.71
2018-03-04T11:26:51.375Z,53.69
2018-03-04T11:27:55.964Z,52.56
2018-03-04T11:29:01.014Z,52.39
2018-03-04T11:30:07.551Z,51.96
2018-03-04T11:31:12.426Z,51.31
2018-03-04T11:32:17.209Z,50.97
2018-03-04T11:33:22.348Z,52.56
2018-03-04T11:34:37.117Z,51.36
2018-03-04T11:35:43.821Z,52.29
2018-03-04T11:36:48.773Z,52.19
2018-03-04T11:37:53.614Z,51.87
2018-03-04T11:38:58.672Z,52.46
2018-03-04T11:40:04.063Z,51.78
2018-03-04T11:41:09.783Z,51.69
2018-03-04T11:42:15.177Z,51.84
2018-03-04T11:43:20.397Z,52.02
2018-03-04T11:44:25.490Z,52.28
2018-03-04T11:45:33.379Z,52.08
2018-03-04T11:46:38.408Z,51.92
2018-03-04T11:47:43.398Z,52.10
2018-03-04T11:48:48.186Z,51.88
2018-03-04T11:49:54.147Z,51.30
2018-03-04T11:50:59.106Z,51.61
2018-03-04T11:52:04.144Z,54.38
2018-03-04T11:53:09.368Z,51.94
2018-03-04T11:54:14.527Z,53.15
2018-03-04T11:55:19.780Z,50.02
2018-03-04T11:56:24.826Z,49.22
2018-03-04T11:57:30.862Z,49.86
2018-03-04T11:58:35.756Z,49.79
2018-03-04T11:59:40.885Z,49.33
2018-03-04T12:00:46.602Z,48.55
2018-03-04T12:01:51.504Z,49.14
2018-03-04T12:02:57.637Z,48.22
2018-03-04T12:04:02.663Z,48.55
2018-03-04T12:05:07.429Z,47.47
2018-03-04T12:06:12.307Z,47.58
2018-03-04T12:07:18.574Z,48.00
2018-03-04T12:08:23.617Z,51.47
2018-03-04T12:09:28.613Z,48.65
2018-03-04T12:10:33.565Z,49.09
2018-03-04T12:11:38.595Z,48.21
2018-03-04T12:12:44.006Z,48.17
2018-03-04T12:13:48.915Z,48.48
2018-03-04T12:14:53.956Z,48.92
2018-03-04T12:15:59.912Z,49.26
2018-03-04T12:17:04.852Z,49.62
2018-03-04T12:18:09.735Z,49.38
2018-03-04T12:19:15.074Z,49.81
2018-03-04T12:20:20.354Z,50.10
2018-03-04T12:21:25.256Z,52.39
2018-03-04T12:22:31.149Z,49.40
2018-03-04T12:23:36.232Z,49.64
2018-03-04T12:24:42.657Z,50.10
2018-03-04T12:25:47.772Z,50.16
2018-03-04T12:26:53.344Z,50.27
2018-03-04T12:27:58.909Z,51.04
2018-03-04T12:29:04.182Z,52.24
2018-03-04T12:30:09.340Z,50.12
2018-03-04T12:31:15.268Z,51.09
2018-03-04T12:32:20.372Z,48.68
2018-03-04T12:33:26.161Z,49.21
2018-03-04T12:34:32.089Z,50.14
2018-03-04T12:35:38.570Z,50.47
2018-03-04T12:36:45.394Z,50.66
2018-03-04T12:37:50.644Z,51.04
2018-03-04T12:38:56.498Z,50.89
2018-03-04T12:40:02.160Z,50.59
2018-03-04T12:41:07.099Z,48.96
2018-03-04T12:42:12.176Z,48.02
2018-03-04T12:43:17.559Z,48.65
2018-03-04T12:44:22.960Z,48.01
2018-03-04T12:45:28.186Z,48.69
2018-03-04T12:46:34.466Z,49.16
2018-03-04T12:47:40.417Z,49.43
2018-03-04T12:48:45.303Z,49.49
2018-03-04T12:49:50.831Z,49.84
2018-03-04T12:50:56.117Z,50.38
2018-03-04T12:52:01.851Z,50.35
2018-03-04T12:53:06.967Z,50.85
2018-03-04T12:54:12.294Z,51.09
2018-03-04T12:55:17.446Z,50.37
2018-03-04T12:56:22.803Z,50.02
2018-03-04T12:57:27.838Z,50.76
2018-03-04T12:58:35.013Z,50.88
2018-03-04T12:59:42.462Z,50.97
2018-03-04T13:00:47.798Z,50.01
2018-03-04T13:01:53.823Z,50.08
2018-03-04T13:02:59.588Z,50.00
2018-03-04T13:04:05.032Z,49.57
2018-03-04T13:05:10.260Z,49.33
2018-03-04T13:06:15.030Z,49.90
2018-03-04T13:07:20.182Z,50.59
2018-03-04T13:08:25.454Z,49.33
2018-03-04T13:09:30.616Z,49.28
2018-03-04T13:10:35.953Z,48.52
2018-03-04T13:11:41.957Z,49.04
2018-03-04T13:12:47.117Z,49.01
2018-03-04T13:13:52.757Z,49.03
2018-03-04T13:14:57.851Z,48.99
2018-03-04T13:16:03.661Z,48.72
2018-03-04T13:17:08.770Z,49.07
2018-03-04T13:18:14.290Z,48.19
2018-03-04T13:19:19.310Z,47.55
2018-03-04T13:20:24.797Z,48.15
2018-03-04T13:21:30.201Z,49.12
2018-03-04T13:22:34.984Z,49.85
2018-03-04T13:23:39.885Z,49.70
2018-03-04T13:24:45.150Z,49.92
2018-03-04T13:25:51.446Z,49.96
2018-03-04T13:26:56.690Z,49.75
2018-03-04T13:28:02.379Z,49.37
2018-03-04T13:29:07.073Z,49.83
2018-03-04T13:30:13.813Z,49.58
2018-03-04T13:31:19.959Z,50.04
2018-03-04T13:32:25.244Z,49.40
2018-03-04T13:33:30.915Z,48.93
2018-03-04T13:34:36.352Z,49.42
2018-03-04T13:35:41.605Z,50.03
2018-03-04T13:36:46.647Z,50.57
2018-03-04T13:37:51.540Z,50.72
2018-03-04T13:38:56.646Z,50.69
2018-03-04T13:40:01.885Z,50.91
2018-03-04T13:41:07.082Z,51.01
2018-03-04T13:42:13.065Z,50.91
2018-03-04T13:43:19.804Z,51.11
2018-03-04T13:44:25.906Z,51.73
2018-03-04T13:45:31.058Z,52.15
2018-03-04T13:46:38.461Z,52.10
2018-03-04T13:47:43.523Z,51.88
2018-03-04T13:48:49.121Z,51.72
2018-03-04T13:49:54.975Z,52.02
2018-03-04T13:51:00.573Z,52.10
2018-03-04T13:52:05.372Z,52.02
2018-03-04T13:53:10.503Z,52.43
2018-03-04T13:54:15.453Z,52.05
2018-03-04T13:55:20.775Z,52.00
2018-03-04T13:56:25.737Z,52.04
2018-03-04T13:57:31.440Z,52.26
2018-03-04T13:58:37.101Z,51.67
2018-03-04T13:59:42.281Z,51.12
2018-03-04T14:00:48.042Z,50.92
2018-03-04T14:01:53.524Z,51.12
2018-03-04T14:02:58.666Z,50.60